createdAt,value
2022-12-17T00:01:53.397Z,20.03
2022-12-17T00:04:39.325Z,21.60
2022-12-17T00:07:24.619Z,23.83
2022-12-17T00:10:10.051Z,17.83
2022-12-17T00:12:56.501Z,21.10
2022-12-17T00:15:42.923Z,19.40
2022-12-17T00:18:28.825Z,24.57
2022-12-17T00:21:16.094Z,20.47
2022-12-17T00:24:02.045Z,25.23
2022-12-17T00:26:47.389Z,20.30
2022-12-17T00:29:32.798Z,19.77
2022-12-17T00:32:18.180Z,19.50
2022-12-17T00:35:03.686Z,17.60
2022-12-17T00:37:49.633Z,17.80
2022-12-17T00:40:34.820Z,20.07
2022-12-17T00:43:20.082Z,21.30
2022-12-17T00:46:05.669Z,19.03
2022-12-17T00:48:50.965Z,17.80
2022-12-17T00:51:37.387Z,22.00
2022-12-17T00:54:22.701Z,20.03
2022-12-17T00:57:07.884Z,17.07
2022-12-17T00:59:53.209Z,20.20
2022-12-17T01:02:41.660Z,20.70
2022-12-17T01:05:27.240Z,17.20
2022-12-17T01:08:12.545Z,18.40
2022-12-17T01:10:57.821Z,19.40
2022-12-17T01:13:43.238Z,18.50
2022-12-17T01:16:31.272Z,18.70
2022-12-17T01:19:17.548Z,19.77
2022-12-17T01:22:03.804Z,18.40
2022-12-17T01:24:49.132Z,20.07
2022-12-17T01:27:34.316Z,19.97
2022-12-17T01:30:19.593Z,17.27
2022-12-17T01:33:04.788Z,19.50
2022-12-17T01:35:50.139Z,20.30
2022-12-17T01:38:37.949Z,16.90
2022-12-17T01:41:24.247Z,22.80
2022-12-17T01:44:10.079Z,21.27
2022-12-17T01:46:58.842Z,18.97
2022-12-17T01:49:46.095Z,16.87
2022-12-17T01:52:33.864Z,18.50
2022-12-17T01:55:21.394Z,18.00
2022-12-17T01:58:06.637Z,16.00
2022-12-17T02:00:52.574Z,20.13
2022-12-17T02:03:38.652Z,16.60
2022-12-17T02:06:44.828Z,17.10
2022-12-17T02:09:44.334Z,19.60
2022-12-17T02:12:41.356Z,16.60
2022-12-17T02:15:27.272Z,17.50
2022-12-17T02:18:16.738Z,17.83
2022-12-17T02:21:07.413Z,17.93
2022-12-17T02:24:10.871Z,18.53
2022-12-17T02:27:00.544Z,23.50
2022-12-17T02:29:48.876Z,18.27
2022-12-17T02:32:36.323Z,16.83
2022-12-17T02:35:28.806Z,18.27
2022-12-17T02:38:13.911Z,15.30
2022-12-17T02:41:00.601Z,15.67
2022-12-17T02:43:46.908Z,17.33
2022-12-17T02:46:32.213Z,16.00
2022-12-17T02:49:17.617Z,14.80
2022-12-17T02:52:02.937Z,22.43
2022-12-17T02:54:51.634Z,16.40
2022-12-17T02:57:42.234Z,12.50
2022-12-17T03:00:29.262Z,15.30
2022-12-17T03:03:14.489Z,13.97
2022-12-17T03:05:59.861Z,12.50
2022-12-17T03:08:45.183Z,14.47
2022-12-17T03:11:30.493Z,14.87
2022-12-17T03:14:18.887Z,16.30
2022-12-17T03:17:11.843Z,15.77
2022-12-17T03:19:57.225Z,13.60
2022-12-17T03:22:43.091Z,14.03
2022-12-17T03:25:28.180Z,15.33
2022-12-17T03:28:13.455Z,15.90
2022-12-17T03:30:58.884Z,21.43
2022-12-17T03:33:54.865Z,13.57
2022-12-17T03:36:40.742Z,12.53
2022-12-17T03:39:25.945Z,15.73
2022-12-17T03:42:11.199Z,13.73
2022-12-17T03:44:56.469Z,14.47
2022-12-17T03:47:41.730Z,13.47
2022-12-17T03:50:27.750Z,12.43
2022-12-17T03:53:13.080Z,12.17
2022-12-17T03:55:58.794Z,14.70
2022-12-17T03:58:44.125Z,16.10
2022-12-17T04:01:30.022Z,13.33
2022-12-17T04:04:15.183Z,14.57
2022-12-17T04:07:00.219Z,14.30
2022-12-17T04:09:46.153Z,15.53
2022-12-17T04:12:31.453Z,13.83
2022-12-17T04:15:16.746Z,13.00
2022-12-17T04:18:02.136Z,12.90
2022-12-17T04:20:49.865Z,13.13
2022-12-17T04:23:42.671Z,10.93
2022-12-17T04:26:28.565Z,12.30
2022-12-17T04:29:14.480Z,14.90
2022-12-17T04:31:59.825Z,10.43
2022-12-17T04:34:45.244Z,11.83
2022-12-17T04:37:30.577Z,13.27
2022-12-17T04:40:15.932Z,11.27
2022-12-17T04:43:01.278Z,14.20
2022-12-17T04:45:48.148Z,12.40
2022-12-17T04:48:33.581Z,11.73
2022-12-17T04:51:18.800Z,13.77
2022-12-17T04:54:04.052Z,11.63
2022-12-17T04:56:49.362Z,13.50
2022-12-17T04:59:34.536Z,10.60
2022-12-17T05:02:19.826Z,12.53
2022-12-17T05:05:05.000Z,10.50
2022-12-17T05:07:50.381Z,10.00
2022-12-17T05:10:36.268Z,8.63
2022-12-17T05:13:21.558Z,10.60
2022-12-17T05:16:07.412Z,12.27
2022-12-17T05:18:52.722Z,13.13
2022-12-17T05:21:38.107Z,11.00
2022-12-17T05:24:23.654Z,7.87
2022-12-17T05:27:08.901Z,9.67
2022-12-17T05:29:54.288Z,9.50
2022-12-17T05:32:40.265Z,10.43
2022-12-17T05:35:25.636Z,10.37
2022-12-17T05:38:10.908Z,9.40
2022-12-17T05:40:59.270Z,8.37
2022-12-17T05:43:44.572Z,12.63
2022-12-17T05:46:29.917Z,12.07
2022-12-17T05:49:15.339Z,7.73
2022-12-17T05:52:00.637Z,12.13
2022-12-17T05:54:45.869Z,9.77
2022-12-17T05:57:31.167Z,12.27
2022-12-17T06:00:16.309Z,8.33
2022-12-17T06:03:01.764Z,10.37
2022-12-17T06:05:46.877Z,10.93
2022-12-17T06:08:32.230Z,13.13
2022-12-17T06:11:18.480Z,12.60
2022-12-17T06:14:05.428Z,9.80
2022-12-17T06:16:50.713Z,11.07
2022-12-17T06:19:37.631Z,9.97
2022-12-17T06:22:22.911Z,11.60
2022-12-17T06:25:08.207Z,9.10
2022-12-17T06:27:54.035Z,11.77
2022-12-17T06:30:40.783Z,10.43
2022-12-17T06:33:28.151Z,10.80
2022-12-17T06:36:22.240Z,10.53
2022-12-17T06:39:07.757Z,9.80
2022-12-17T06:41:53.035Z,8.33
2022-12-17T06:44:46.564Z,8.47
2022-12-17T06:47:32.384Z,12.07
2022-12-17T06:50:17.759Z,11.87
2022-12-17T06:53:03.012Z,8.70
2022-12-17T06:55:48.417Z,10.33
2022-12-17T06:58:33.688Z,9.27
2022-12-17T07:01:19.311Z,8.10
2022-12-17T07:04:04.735Z,8.97
2022-12-17T07:06:49.993Z,9.27
2022-12-17T07:09:35.350Z,9.17
2022-12-17T07:12:20.551Z,9.10
2022-12-17T07:15:05.903Z,31.70
2022-12-17T07:17:51.152Z,11.50
2022-12-17T07:20:36.612Z,12.80
2022-12-17T07:23:22.003Z,13.87
2022-12-17T07:26:07.115Z,9.90
2022-12-17T07:28:53.051Z,13.07
2022-12-17T07:31:38.417Z,11.23
2022-12-17T07:34:23.875Z,10.07
2022-12-17T07:37:09.109Z,12.73
2022-12-17T07:39:54.448Z,9.03
2022-12-17T07:42:39.727Z,9.37
2022-12-17T07:45:25.655Z,9.67
2022-12-17T07:48:12.784Z,9.53
2022-12-17T07:51:01.089Z,7.70
2022-12-17T07:53:46.490Z,10.50
2022-12-17T07:56:31.806Z,9.70
2022-12-17T07:59:17.136Z,8.73
2022-12-17T08:02:02.770Z,8.20
2022-12-17T08:04:47.968Z,10.30
2022-12-17T08:07:33.089Z,9.90
2022-12-17T08:10:18.364Z,7.03
2022-12-17T08:13:20.934Z,10.80
2022-12-17T08:16:06.916Z,10.50
2022-12-17T08:18:52.428Z,6.20
2022-12-17T08:21:37.726Z,10.73
2022-12-17T08:24:43.125Z,10.27
2022-12-17T08:27:28.728Z,10.23
2022-12-17T08:30:13.897Z,8.50
2022-12-17T08:32:59.177Z,9.30
2022-12-17T08:35:45.010Z,9.43
2022-12-17T08:38:30.306Z,7.60
2022-12-17T08:41:17.761Z,10.30
2022-12-17T08:44:03.125Z,35.57
2022-12-17T08:46:48.402Z,29.07
2022-12-17T08:49:33.700Z,33.83
2022-12-17T08:52:19.044Z,27.77
2022-12-17T08:55:04.431Z,28.20
2022-12-17T08:57:49.537Z,21.47
2022-12-17T09:00:35.005Z,24.20
2022-12-17T09:03:22.052Z,27.93
2022-12-17T09:06:07.280Z,25.03
2022-12-17T09:08:52.591Z,19.53
2022-12-17T09:11:37.874Z,19.57
2022-12-17T09:14:23.217Z,17.37
2022-12-17T09:17:08.545Z,19.37
2022-12-17T09:19:53.705Z,21.03
2022-12-17T09:22:38.903Z,19.50
2022-12-17T09:25:24.293Z,19.60
2022-12-17T09:28:09.749Z,24.27
2022-12-17T09:30:55.001Z,19.00
2022-12-17T09:33:40.658Z,22.10
2022-12-17T09:36:26.557Z,16.40
2022-12-17T09:39:11.865Z,14.67
2022-12-17T09:42:02.814Z,16.10
2022-12-17T09:45:00.164Z,15.50
2022-12-17T09:48:05.232Z,14.60
2022-12-17T09:50:50.737Z,12.70
2022-12-17T09:53:54.356Z,17.30
2022-12-17T09:56:42.723Z,15.90
2022-12-17T09:59:45.252Z,15.80
2022-12-17T10:02:44.541Z,11.50
2022-12-17T10:05:42.957Z,17.37
2022-12-17T10:08:40.121Z,15.23
2022-12-17T10:11:37.667Z,14.20
2022-12-17T10:14:40.804Z,19.67
2022-12-17T10:20:48.396Z,40.23
2022-12-17T10:23:42.800Z,108.60
2022-12-17T10:26:28.327Z,1046.07
2022-12-17T10:29:24.479Z,868.37
2022-12-17T10:32:09.717Z,723.03
2022-12-17T10:35:03.372Z,658.20
2022-12-17T10:37:52.618Z,1042.85
2022-12-17T10:40:46.143Z,39.73
2022-12-17T10:43:48.952Z,63.97
2022-12-17T10:46:44.497Z,43.97
2022-12-17T10:49:35.098Z,40.93
2022-12-17T10:52:42.870Z,43.20
2022-12-17T10:55:44.426Z,41.37
2022-12-17T10:58:47.986Z,43.67
2022-12-17T11:01:42.084Z,38.97
2022-12-17T11:04:49.651Z,39.70
2022-12-17T11:07:46.101Z,40.20
2022-12-17T11:10:40.092Z,40.83
2022-12-17T11:13:38.430Z,33.80
2022-12-17T11:16:31.661Z,35.43
2022-12-17T11:19:28.774Z,41.57
2022-12-17T11:22:19.521Z,39.23
2022-12-17T11:25:55.971Z,38.80
2022-12-17T11:28:43.909Z,40.00
2022-12-17T11:31:32.045Z,45.77
2022-12-17T11:34:36.838Z,37.80
2022-12-17T11:37:32.144Z,35.80
2022-12-17T11:40:29.468Z,46.23
2022-12-17T11:43:24.111Z,43.07
2022-12-17T11:46:18.047Z,43.03
2022-12-17T11:49:15.571Z,44.17
2022-12-17T11:52:17.626Z,47.93
2022-12-17T11:55:30.634Z,41.80
2022-12-17T11:58:21.475Z,46.67
2022-12-17T12:01:29.617Z,42.83
2022-12-17T12:04:43.869Z,39.37
2022-12-17T12:08:01.374Z,46.33
2022-12-17T12:11:05.958Z,39.40
2022-12-17T12:14:09.486Z,39.17
2022-12-17T12:17:38.217Z,47.03
2022-12-17T12:20:49.475Z,45.27
2022-12-17T12:24:01.545Z,46.23
2022-12-17T12:26:58.503Z,46.20
2022-12-17T12:30:04.106Z,45.40
2022-12-17T12:33:16.840Z,47.30
2022-12-17T12:36:02.230Z,47.33
2022-12-17T12:38:56.125Z,47.57
2022-12-17T12:42:01.643Z,39.57
2022-12-17T12:45:12.535Z,39.50
2022-12-17T12:48:25.341Z,35.73
2022-12-17T12:51:43.371Z,47.43
2022-12-17T12:54:45.002Z,41.13
2022-12-17T12:57:50.538Z,37.40
2022-12-17T13:00:53.270Z,38.87
2022-12-17T13:03:50.608Z,42.37
2022-12-17T13:06:38.973Z,45.03
2022-12-17T13:09:34.135Z,51.93
2022-12-17T13:12:04.338Z,45.33
2022-12-17T13:14:52.249Z,49.57
2022-12-17T13:17:24.948Z,44.00
2022-12-17T13:19:57.274Z,39.70
2022-12-17T13:22:24.668Z,39.47
2022-12-17T13:24:53.920Z,36.70
2022-12-17T13:27:35.699Z,41.67
2022-12-17T13:30:17.151Z,39.67
2022-12-17T13:33:04.633Z,42.97
2022-12-17T13:35:40.017Z,42.17
2022-12-17T13:38:36.049Z,35.10
2022-12-17T13:41:10.770Z,32.50
2022-12-17T13:43:53.760Z,37.50
2022-12-17T13:46:26.310Z,38.33
2022-12-17T13:48:58.788Z,36.00
2022-12-17T13:51:28.675Z,43.13
2022-12-17T13:54:00.839Z,34.80
2022-12-17T13:56:36.280Z,42.33
2022-12-17T13:59:09.068Z,43.60
2022-12-17T14:01:46.139Z,38.00
2022-12-17T14:04:20.403Z,39.00
2022-12-17T14:06:48.189Z,41.40
2022-12-17T14:09:18.342Z,36.33
2022-12-17T14:12:03.671Z,35.20
2022-12-17T14:14:33.622Z,33.63
2022-12-17T14:17:00.611Z,36.93
2022-12-17T14:19:28.788Z,38.83
2022-12-17T14:21:55.989Z,37.47
2022-12-17T14:24:27.095Z,39.37
2022-12-17T14:26:57.189Z,81.13
2022-12-17T14:29:25.877Z,778.13
2022-12-17T14:32:00.945Z,733.53
2022-12-17T14:34:27.870Z,823.30
2022-12-17T14:37:03.443Z,39.97
2022-12-17T14:39:32.374Z,638.50
2022-12-17T14:42:25.842Z,93.67
2022-12-17T14:44:55.096Z,147.07
2022-12-17T14:47:32.095Z,47.07
2022-12-17T14:50:26.167Z,160.17
2022-12-17T14:52:57.941Z,330.17
2022-12-17T14:55:37.312Z,132.87
2022-12-17T14:58:11.188Z,68.07
2022-12-17T15:01:08.986Z,55.17
2022-12-17T15:03:41.458Z,48.47
2022-12-17T15:06:11.134Z,201.73
2022-12-17T15:08:42.545Z,48.20
2022-12-17T15:11:12.616Z,238.10
2022-12-17T15:13:39.194Z,170.03
2022-12-17T15:16:06.083Z,263.83
2022-12-17T15:18:32.735Z,186.73
2022-12-17T15:21:00.182Z,63.43
2022-12-17T15:23:26.796Z,47.53
2022-12-17T15:25:54.079Z,287.57
2022-12-17T15:28:21.448Z,228.43
2022-12-17T15:30:49.180Z,425.13
2022-12-17T15:33:16.551Z,210.47
2022-12-17T15:35:43.503Z,536.83
2022-12-17T15:38:11.095Z,751.73
2022-12-17T15:40:38.035Z,580.73
2022-12-17T15:43:13.673Z,367.40
2022-12-17T15:45:44.083Z,726.60
2022-12-17T15:48:12.889Z,975.43
2022-12-17T15:50:39.636Z,933.60
2022-12-17T15:53:06.534Z,984.67
2022-12-17T15:55:33.093Z,1035.53
2022-12-17T15:57:59.767Z,1114.13
2022-12-17T16:00:26.459Z,1043.90
2022-12-17T16:02:53.247Z,1107.83
2022-12-17T16:05:20.864Z,1035.20
2022-12-17T16:07:47.556Z,962.37
2022-12-17T16:10:14.759Z,545.53
2022-12-17T16:12:41.409Z,442.17
2022-12-17T16:15:09.776Z,239.77
2022-12-17T16:17:36.847Z,825.47
2022-12-17T16:20:05.513Z,885.10
2022-12-17T16:22:32.338Z,90.10
2022-12-17T16:24:58.906Z,619.03
2022-12-17T16:27:25.528Z,760.17
2022-12-17T16:29:52.072Z,963.73
2022-12-17T16:32:18.733Z,1010.73
2022-12-17T16:34:45.416Z,704.73
2022-12-17T16:37:12.370Z,156.23
2022-12-17T16:39:38.957Z,890.57
2022-12-17T16:42:05.556Z,101.00
2022-12-17T16:44:32.113Z,67.70
2022-12-17T16:46:59.777Z,76.87
2022-12-17T16:49:26.766Z,64.87
2022-12-17T16:51:54.862Z,57.80
2022-12-17T16:54:24.105Z,67.37
2022-12-17T16:56:50.945Z,60.53
2022-12-17T16:59:17.705Z,58.00
2022-12-17T17:01:47.030Z,64.17
2022-12-17T17:04:15.809Z,65.97
2022-12-17T17:06:48.372Z,84.63
2022-12-17T17:09:15.951Z,90.17
2022-12-17T17:11:45.816Z,74.93
2022-12-17T17:14:16.566Z,71.50
2022-12-17T17:16:43.141Z,66.70
2022-12-17T17:19:09.736Z,70.03
2022-12-17T17:21:38.689Z,79.00
2022-12-17T17:24:20.107Z,69.50
2022-12-17T17:26:48.327Z,73.90
2022-12-17T17:29:14.995Z,59.50
2022-12-17T17:34:28.099Z,65.10
2022-12-17T17:36:54.633Z,67.97
2022-12-17T17:39:21.177Z,72.23
2022-12-17T17:41:47.871Z,69.00
2022-12-17T17:44:15.967Z,68.63
2022-12-17T17:46:42.590Z,66.30
2022-12-17T17:49:09.784Z,74.87
2022-12-17T17:54:27.636Z,60.67
2022-12-17T17:56:54.190Z,61.93
2022-12-17T17:59:24.243Z,61.77
2022-12-17T18:01:55.918Z,54.80
2022-12-17T18:04:24.157Z,68.37
2022-12-17T18:07:23.258Z,65.70
2022-12-17T18:09:37.276Z,62.73
2022-12-17T18:12:24.035Z,55.20
2022-12-17T18:15:14.184Z,70.30
2022-12-17T18:17:37.140Z,69.17
2022-12-17T18:20:04.280Z,54.63
2022-12-17T18:22:30.810Z,64.90
2022-12-17T18:24:57.406Z,64.57
2022-12-17T18:27:23.940Z,86.07
2022-12-17T18:29:50.466Z,85.27
2022-12-17T18:32:16.984Z,138.40
2022-12-17T18:34:43.653Z,101.23
2022-12-17T18:37:10.266Z,101.63
2022-12-17T18:39:36.872Z,97.50
2022-12-17T18:42:21.857Z,111.73
2022-12-17T18:44:48.389Z,109.63
2022-12-17T18:47:15.015Z,109.70
2022-12-17T18:49:41.683Z,139.80
2022-12-17T18:52:13.182Z,132.60
2022-12-17T18:54:43.328Z,128.33
2022-12-17T18:57:09.867Z,168.00
2022-12-17T18:59:37.302Z,157.53
2022-12-17T19:02:04.038Z,149.03
2022-12-17T19:04:32.708Z,174.13
2022-12-17T19:06:59.444Z,132.63
2022-12-17T19:09:29.977Z,198.03
2022-12-17T19:11:58.040Z,128.30
2022-12-17T19:14:25.602Z,132.80
2022-12-17T19:16:54.164Z,128.97
2022-12-17T19:19:21.542Z,133.53
2022-12-17T19:21:48.664Z,127.40
2022-12-17T19:24:17.344Z,106.50
2022-12-17T19:26:44.825Z,120.43
2022-12-17T19:29:13.157Z,119.93
2022-12-17T19:31:39.990Z,103.47
2022-12-17T19:34:09.556Z,95.90
2022-12-17T19:36:37.323Z,96.63
2022-12-17T19:39:07.579Z,119.17
2022-12-17T19:41:34.765Z,135.07
2022-12-17T19:44:06.940Z,134.90
2022-12-17T19:46:34.976Z,127.57
2022-12-17T19:49:02.951Z,121.30
2022-12-17T19:51:31.061Z,97.90
2022-12-17T19:54:01.804Z,94.90
2022-12-17T19:56:33.387Z,101.83
2022-12-17T19:59:02.607Z,95.97
2022-12-17T20:01:31.747Z,88.40
2022-12-17T20:03:59.060Z,95.37
2022-12-17T20:06:31.055Z,89.10
2022-12-17T20:09:02.241Z,88.10
2022-12-17T20:11:35.288Z,85.23
2022-12-17T20:14:11.011Z,87.43
2022-12-17T20:16:58.111Z,94.00
2022-12-17T20:19:32.541Z,99.63
2022-12-17T20:22:01.190Z,98.57
2022-12-17T20:24:31.637Z,94.93
2022-12-17T20:26:59.744Z,86.60
2022-12-17T20:29:27.192Z,101.40
2022-12-17T20:31:54.422Z,96.90
2022-12-17T20:34:21.438Z,104.97
2022-12-17T20:36:48.547Z,112.03
2022-12-17T20:39:15.484Z,101.77
2022-12-17T20:41:43.572Z,102.23
2022-12-17T20:44:14.467Z,105.87
2022-12-17T20:46:42.565Z,112.23
2022-12-17T20:49:11.618Z,96.03
2022-12-17T20:51:38.325Z,103.53
2022-12-17T20:54:05.240Z,96.17
2022-12-17T20:56:34.657Z,89.37
2022-12-17T20:59:04.997Z,96.87
2022-12-17T21:01:34.285Z,101.93
2022-12-17T21:04:01.920Z,106.60
2022-12-17T21:06:37.092Z,93.63
2022-12-17T21:09:04.542Z,97.27
2022-12-17T21:11:33.277Z,99.60
2022-12-17T21:14:04.119Z,94.00
2022-12-17T21:16:31.819Z,92.03
2022-12-17T21:19:00.287Z,96.00
2022-12-17T21:21:29.922Z,97.37
2022-12-17T21:23:57.033Z,82.93
2022-12-17T21:26:26.494Z,88.97
2022-12-17T21:28:55.358Z,94.73
2022-12-17T21:31:33.530Z,92.67
2022-12-17T21:34:03.162Z,86.70
2022-12-17T21:36:32.098Z,91.77
2022-12-17T21:38:59.516Z,101.03
2022-12-17T21:41:28.833Z,98.30
2022-12-17T21:43:57.749Z,110.57
2022-12-17T21:46:26.949Z,161.50
2022-12-17T21:48:55.181Z,173.33
2022-12-17T21:51:22.004Z,186.13
2022-12-17T21:53:53.658Z,121.93
2022-12-17T21:56:20.446Z,132.07
2022-12-17T21:58:48.238Z,134.87
2022-12-17T22:01:21.893Z,174.10
2022-12-17T22:03:53.146Z,180.00
2022-12-17T22:06:23.948Z,214.87
2022-12-17T22:08:58.869Z,189.97
2022-12-17T22:11:33.107Z,142.77
2022-12-17T22:14:07.380Z,108.00
2022-12-17T22:16:38.950Z,93.90
2022-12-17T22:19:07.096Z,77.30
2022-12-17T22:21:35.720Z,102.93
2022-12-17T22:24:02.759Z,90.37
2022-12-17T22:26:30.018Z,89.73
2022-12-17T22:28:56.616Z,92.87
2022-12-17T22:31:43.865Z,106.37
2022-12-17T22:34:58.857Z,99.30
2022-12-17T22:40:47.350Z,90.13
2022-12-17T22:41:39.556Z,95.90
2022-12-17T22:44:37.552Z,84.90
2022-12-17T22:45:39.246Z,95.10
2022-12-17T22:48:07.307Z,90.17
2022-12-17T22:50:36.086Z,81.17
2022-12-17T22:53:06.910Z,86.40
2022-12-17T22:55:34.415Z,86.30
2022-12-17T22:58:01.681Z,78.83
2022-12-17T23:00:33.913Z,80.97
2022-12-17T23:03:01.071Z,68.20
2022-12-17T23:05:28.505Z,79.57
2022-12-17T23:07:56.351Z,69.10
2022-12-17T23:10:24.564Z,66.53
2022-12-17T23:12:52.705Z,76.87
2022-12-17T23:15:20.637Z,71.53
2022-12-17T23:17:47.476Z,83.47
2022-12-17T23:20:14.789Z,74.67
2022-12-17T23:22:41.826Z,89.00
2022-12-17T23:25:09.365Z,72.63
2022-12-17T23:27:35.940Z,73.73
2022-12-17T23:30:02.598Z,75.40
2022-12-17T23:32:29.279Z,72.97
2022-12-17T23:34:55.858Z,74.13
2022-12-17T23:37:22.509Z,77.77
2022-12-17T23:39:49.126Z,77.33
2022-12-17T23:42:15.943Z,68.80
2022-12-17T23:44:42.474Z,80.40
2022-12-17T23:47:09.029Z,79.77
2022-12-17T23:49:35.550Z,75.93
2022-12-17T23:52:02.197Z,90.27
2022-12-17T23:54:28.874Z,66.83
2022-12-17T23:56:55.511Z,68.63
2022-12-17T23:59:22.043Z,98.27
